createdAt,value
2023-04-15T00:00:57.678Z,95.26
2023-04-15T00:03:23.996Z,96.49
2023-04-15T00:05:50.050Z,96.50
2023-04-15T00:08:15.827Z,97.02
2023-04-15T00:10:43.508Z,97.19
2023-04-15T00:13:09.719Z,98.88
2023-04-15T00:15:36.957Z,99.28
2023-04-15T00:18:03.670Z,98.36
2023-04-15T00:20:29.733Z,98.04
2023-04-15T00:22:55.498Z,98.83
2023-04-15T00:25:21.517Z,98.75
2023-04-15T00:27:48.055Z,97.93
2023-04-15T00:30:13.961Z,97.99
2023-04-15T00:32:39.893Z,98.48
2023-04-15T00:35:06.068Z,99.38
2023-04-15T00:37:31.955Z,98.15
2023-04-15T00:39:57.841Z,98.69
2023-04-15T00:42:24.839Z,98.48
2023-04-15T00:44:50.901Z,99.27
2023-04-15T00:47:18.218Z,100.00
2023-04-15T00:49:44.033Z,100.00
2023-04-15T00:52:09.883Z,100.00
2023-04-15T00:54:36.885Z,100.00
2023-04-15T00:57:05.136Z,100.00
2023-04-15T00:59:30.983Z,100.00
2023-04-15T01:01:57.061Z,100.00
2023-04-15T01:04:23.373Z,100.00
2023-04-15T01:06:49.345Z,100.00
2023-04-15T01:09:15.619Z,100.00
2023-04-15T01:11:41.501Z,100.00
2023-04-15T01:14:09.302Z,100.00
2023-04-15T01:16:38.952Z,100.00
2023-04-15T01:19:08.091Z,100.00
2023-04-15T01:21:37.410Z,100.00
2023-04-15T01:24:09.604Z,100.00
2023-04-15T01:26:40.467Z,100.00
2023-04-15T01:29:06.539Z,100.00
2023-04-15T01:31:32.421Z,100.00
2023-04-15T01:34:00.197Z,100.00
2023-04-15T01:36:26.158Z,100.00
2023-04-15T01:38:52.009Z,100.00
2023-04-15T01:41:24.692Z,100.00
2023-04-15T01:43:50.591Z,100.00
2023-04-15T01:46:17.997Z,100.00
2023-04-15T01:48:43.896Z,100.00
2023-04-15T01:51:09.735Z,100.00
2023-04-15T01:53:35.712Z,100.00
2023-04-15T01:56:01.695Z,100.00
2023-04-15T01:58:27.448Z,100.00
2023-04-15T02:00:53.281Z,100.00
2023-04-15T02:03:19.371Z,100.00
2023-04-15T02:05:45.378Z,100.00
2023-04-15T02:08:11.782Z,100.00
2023-04-15T02:10:38.101Z,100.00
2023-04-15T02:13:04.061Z,100.00
2023-04-15T02:15:30.027Z,100.00
2023-04-15T02:17:56.226Z,100.00
2023-04-15T02:20:22.671Z,100.00
2023-04-15T02:22:48.737Z,100.00
2023-04-15T02:25:16.365Z,100.00
2023-04-15T02:27:43.730Z,100.00
2023-04-15T02:30:10.284Z,100.00
2023-04-15T02:32:37.352Z,100.00
2023-04-15T02:35:08.170Z,100.00
2023-04-15T02:37:39.952Z,100.00
2023-04-15T02:40:12.660Z,100.00
2023-04-15T02:42:39.678Z,100.00
2023-04-15T02:45:07.261Z,100.00
2023-04-15T02:47:36.253Z,100.00
2023-04-15T02:50:03.533Z,100.00
2023-04-15T02:52:29.395Z,100.00
2023-04-15T02:54:59.726Z,100.00
2023-04-15T02:57:28.995Z,100.00
2023-04-15T02:59:55.128Z,100.00
2023-04-15T03:02:25.166Z,100.00
2023-04-15T03:04:51.168Z,100.00
2023-04-15T03:07:17.740Z,100.00
2023-04-15T03:09:44.000Z,100.00
2023-04-15T03:12:09.917Z,100.00
2023-04-15T03:14:38.034Z,100.00
2023-04-15T03:17:03.846Z,100.00
2023-04-15T03:19:29.705Z,100.00
2023-04-15T03:21:56.793Z,100.00
2023-04-15T03:24:22.668Z,100.00
2023-04-15T03:26:48.457Z,100.00
2023-04-15T03:29:14.265Z,100.00
2023-04-15T03:31:40.854Z,100.00
2023-04-15T03:34:06.816Z,100.00
2023-04-15T03:36:32.676Z,100.00
2023-04-15T03:38:59.078Z,100.00
2023-04-15T03:41:25.836Z,100.00
2023-04-15T03:43:51.737Z,100.00
2023-04-15T03:46:18.071Z,100.00
2023-04-15T03:48:43.876Z,100.00
2023-04-15T03:51:09.666Z,100.00
2023-04-15T03:53:35.585Z,100.00
2023-04-15T03:56:01.654Z,100.00
2023-04-15T03:58:27.557Z,100.00
2023-04-15T04:00:54.230Z,100.00
2023-04-15T04:03:20.545Z,100.00
2023-04-15T04:05:46.773Z,100.00
2023-04-15T04:08:16.036Z,100.00
2023-04-15T04:10:42.316Z,100.00
2023-04-15T04:13:08.175Z,100.00
2023-04-15T04:15:34.090Z,100.00
2023-04-15T04:18:00.229Z,100.00
2023-04-15T04:20:26.139Z,100.00
2023-04-15T04:22:52.012Z,100.00
2023-04-15T04:25:18.229Z,100.00
2023-04-15T04:27:45.062Z,100.00
2023-04-15T04:30:11.304Z,100.00
2023-04-15T04:32:37.267Z,100.00
2023-04-15T04:35:04.421Z,100.00
2023-04-15T04:37:30.378Z,100.00
2023-04-15T04:39:56.973Z,100.00
2023-04-15T04:42:22.890Z,100.00
2023-04-15T04:44:48.675Z,100.00
2023-04-15T04:47:14.553Z,100.00
2023-04-15T04:49:40.900Z,100.00
2023-04-15T04:52:06.716Z,100.00
2023-04-15T04:54:32.963Z,100.00
2023-04-15T04:56:59.439Z,100.00
2023-04-15T04:59:25.224Z,100.00
2023-04-15T05:01:51.342Z,100.00
2023-04-15T05:04:17.300Z,100.00
2023-04-15T05:06:43.282Z,100.00
2023-04-15T05:09:09.164Z,100.00
2023-04-15T05:11:34.964Z,100.00
2023-04-15T05:14:01.643Z,100.00
2023-04-15T05:16:27.839Z,100.00
2023-04-15T05:18:53.669Z,100.00
2023-04-15T05:21:20.096Z,100.00
2023-04-15T05:23:46.366Z,100.00
2023-04-15T05:26:12.325Z,100.00
2023-04-15T05:28:38.582Z,100.00
2023-04-15T05:31:04.697Z,100.00
2023-04-15T05:33:30.645Z,100.00
2023-04-15T05:35:56.412Z,100.00
2023-04-15T05:38:22.645Z,100.00
2023-04-15T05:40:48.506Z,100.00
2023-04-15T05:43:14.285Z,100.00
2023-04-15T05:45:40.070Z,100.00
2023-04-15T05:48:06.407Z,100.00
2023-04-15T05:50:32.265Z,100.00
2023-04-15T05:52:58.147Z,100.00
2023-04-15T05:55:23.963Z,100.00
2023-04-15T05:57:49.799Z,100.00
2023-04-15T06:00:15.848Z,100.00
2023-04-15T06:02:41.993Z,100.00
2023-04-15T06:05:09.282Z,100.00
2023-04-15T06:07:36.194Z,100.00
2023-04-15T06:10:03.331Z,100.00
2023-04-15T06:12:29.272Z,100.00
2023-04-15T06:14:55.083Z,100.00
2023-04-15T06:17:21.445Z,100.00
2023-04-15T06:19:47.299Z,100.00
2023-04-15T06:22:13.119Z,100.00
2023-04-15T06:24:39.074Z,100.00
2023-04-15T06:27:04.916Z,100.00
2023-04-15T06:29:30.812Z,100.00
2023-04-15T06:31:56.888Z,100.00
2023-04-15T06:34:22.878Z,100.00
2023-04-15T06:36:48.745Z,100.00
2023-04-15T06:39:14.697Z,100.00
2023-04-15T06:41:40.855Z,100.00
2023-04-15T06:44:06.708Z,100.00
2023-04-15T06:46:32.592Z,100.00
2023-04-15T06:48:58.448Z,100.00
2023-04-15T06:51:26.566Z,100.00
2023-04-15T06:53:52.656Z,100.00
2023-04-15T06:56:18.470Z,100.00
2023-04-15T06:58:44.363Z,100.00
2023-04-15T07:01:10.856Z,100.00
2023-04-15T07:03:37.119Z,100.00
2023-04-15T07:06:05.723Z,100.00
2023-04-15T07:08:32.939Z,100.00
2023-04-15T07:11:00.726Z,100.00
2023-04-15T07:13:26.691Z,100.00
2023-04-15T07:15:52.544Z,100.00
2023-04-15T07:18:18.406Z,100.00
2023-04-15T07:20:44.182Z,100.00
2023-04-15T07:23:10.119Z,100.00
2023-04-15T07:25:36.022Z,100.00
2023-04-15T07:28:01.884Z,100.00
2023-04-15T07:30:33.848Z,100.00
2023-04-15T07:32:59.753Z,100.00
2023-04-15T07:35:25.948Z,100.00
2023-04-15T07:37:51.790Z,100.00
2023-04-15T07:40:17.818Z,100.00
2023-04-15T07:42:43.739Z,100.00
2023-04-15T07:45:10.109Z,100.00
2023-04-15T07:47:36.078Z,100.00
2023-04-15T07:50:01.960Z,100.00
2023-04-15T07:52:27.975Z,100.00
2023-04-15T07:54:53.818Z,100.00
2023-04-15T07:57:19.675Z,100.00
2023-04-15T07:59:45.491Z,100.00
2023-04-15T08:02:11.726Z,100.00
2023-04-15T08:04:38.037Z,100.00
2023-04-15T08:07:04.415Z,100.00
2023-04-15T08:09:30.580Z,100.00
2023-04-15T08:11:56.938Z,100.00
2023-04-15T08:14:23.902Z,100.00
2023-04-15T08:16:50.218Z,100.00
2023-04-15T08:19:16.456Z,100.00
2023-04-15T08:21:42.321Z,100.00
2023-04-15T08:24:08.170Z,100.00
2023-04-15T08:26:34.066Z,100.00
2023-04-15T08:29:00.190Z,100.00
2023-04-15T08:31:29.106Z,100.00
2023-04-15T08:33:56.970Z,100.00
2023-04-15T08:36:22.822Z,100.00
2023-04-15T08:38:48.683Z,100.00
2023-04-15T08:41:25.702Z,100.00
2023-04-15T08:44:03.477Z,100.00
2023-04-15T08:46:34.168Z,100.00
2023-04-15T08:49:03.746Z,100.00
2023-04-15T08:51:31.226Z,100.00
2023-04-15T08:53:57.602Z,100.00
2023-04-15T08:56:27.613Z,100.00
2023-04-15T08:58:53.907Z,100.00
2023-04-15T09:01:20.392Z,100.00
2023-04-15T09:03:48.810Z,100.00
2023-04-15T09:06:16.858Z,100.00
2023-04-15T09:08:42.993Z,100.00
2023-04-15T09:11:08.976Z,100.00
2023-04-15T09:13:34.836Z,99.08
2023-04-15T09:16:04.989Z,99.44
2023-04-15T09:18:32.781Z,100.00
2023-04-15T09:21:13.365Z,100.00
2023-04-15T09:23:41.280Z,100.00
2023-04-15T09:26:07.641Z,100.00
2023-04-15T09:28:41.017Z,100.00
2023-04-15T09:31:07.176Z,100.00
2023-04-15T09:33:33.033Z,100.00
2023-04-15T09:36:02.914Z,100.00
2023-04-15T09:38:28.827Z,100.00
2023-04-15T09:40:55.313Z,100.00
2023-04-15T09:43:21.437Z,100.00
2023-04-15T09:45:52.802Z,100.00
2023-04-15T09:48:28.267Z,100.00
2023-04-15T09:50:57.289Z,100.00
2023-04-15T09:53:24.606Z,100.00
2023-04-15T09:55:54.344Z,100.00
2023-04-15T09:58:22.647Z,100.00
2023-04-15T10:00:50.418Z,100.00
2023-04-15T10:03:21.665Z,100.00
2023-04-15T10:05:52.181Z,100.00
2023-04-15T10:08:20.960Z,100.00
2023-04-15T10:10:47.853Z,100.00
2023-04-15T10:13:19.974Z,100.00
2023-04-15T10:15:52.734Z,100.00
2023-04-15T10:18:20.895Z,100.00
2023-04-15T10:20:48.060Z,100.00
2023-04-15T10:23:14.894Z,100.00
2023-04-15T10:25:41.435Z,100.00
2023-04-15T10:28:08.317Z,100.00
2023-04-15T10:30:36.046Z,100.00
2023-04-15T10:33:03.303Z,100.00
2023-04-15T10:35:31.428Z,100.00
2023-04-15T10:37:57.459Z,100.00
2023-04-15T10:40:31.099Z,100.00
2023-04-15T10:42:58.869Z,100.00
2023-04-15T10:45:32.023Z,100.00
2023-04-15T10:48:02.891Z,100.00
2023-04-15T10:50:31.984Z,100.00
2023-04-15T10:52:58.557Z,100.00
2023-04-15T10:55:32.234Z,100.00
2023-04-15T10:58:00.733Z,100.00
2023-04-15T11:00:31.156Z,100.00
2023-04-15T11:03:08.129Z,100.00
2023-04-15T11:05:53.413Z,100.00
2023-04-15T11:08:20.277Z,100.00
2023-04-15T11:10:46.001Z,100.00
2023-04-15T11:13:11.785Z,100.00
2023-04-15T11:15:44.266Z,100.00
2023-04-15T11:18:21.402Z,100.00
2023-04-15T11:20:54.243Z,100.00
2023-04-15T11:23:48.864Z,100.00
2023-04-15T11:26:15.149Z,100.00
2023-04-15T11:28:44.047Z,100.00
2023-04-15T11:31:12.812Z,100.00
2023-04-15T11:34:00.847Z,100.00
2023-04-15T11:36:28.685Z,100.00
2023-04-15T11:38:55.284Z,100.00
2023-04-15T11:41:22.448Z,100.00
2023-04-15T11:43:49.655Z,100.00
2023-04-15T11:46:16.057Z,100.00
2023-04-15T11:48:44.601Z,100.00
2023-04-15T11:51:11.411Z,100.00
2023-04-15T11:53:45.925Z,100.00
2023-04-15T11:56:20.351Z,100.00
2023-04-15T11:58:47.045Z,100.00
2023-04-15T12:01:13.380Z,100.00
2023-04-15T12:03:42.687Z,100.00
2023-04-15T12:06:20.678Z,100.00
2023-04-15T12:08:55.938Z,100.00
2023-04-15T12:11:36.687Z,100.00
2023-04-15T12:14:08.675Z,100.00
2023-04-15T12:17:02.371Z,100.00
2023-04-15T12:19:39.359Z,100.00
2023-04-15T12:22:10.388Z,100.00
2023-04-15T12:24:37.750Z,100.00
2023-04-15T12:27:08.605Z,100.00
2023-04-15T12:29:36.338Z,100.00
2023-04-15T12:32:14.972Z,100.00
2023-04-15T12:34:42.805Z,100.00
2023-04-15T12:37:10.911Z,100.00
2023-04-15T12:39:39.262Z,100.00
2023-04-15T12:42:05.927Z,100.00
2023-04-15T12:44:33.177Z,100.00
2023-04-15T12:46:59.552Z,100.00
2023-04-15T12:49:26.173Z,100.00
2023-04-15T12:51:56.945Z,100.00
2023-04-15T12:54:23.222Z,100.00
2023-04-15T12:56:50.298Z,100.00
2023-04-15T12:59:19.708Z,100.00
2023-04-15T13:01:47.423Z,100.00
2023-04-15T13:04:14.318Z,100.00
2023-04-15T13:06:40.319Z,100.00
2023-04-15T13:09:06.286Z,100.00
2023-04-15T13:11:33.265Z,100.00
2023-04-15T13:14:04.735Z,100.00
2023-04-15T13:16:31.400Z,100.00
2023-04-15T13:19:02.272Z,100.00
2023-04-15T13:21:28.401Z,100.00
2023-04-15T13:23:54.587Z,100.00
2023-04-15T13:26:20.613Z,100.00
2023-04-15T13:28:46.764Z,100.00
2023-04-15T13:31:12.858Z,100.00
2023-04-15T13:33:38.762Z,100.00
2023-04-15T13:36:06.101Z,100.00
2023-04-15T13:38:32.111Z,100.00
2023-04-15T13:40:57.957Z,100.00
2023-04-15T13:43:23.840Z,100.00
2023-04-15T13:45:49.915Z,100.00
2023-04-15T13:48:16.353Z,100.00
2023-04-15T13:50:44.622Z,100.00
2023-04-15T13:53:11.746Z,100.00
2023-04-15T13:55:40.939Z,100.00
2023-04-15T13:58:07.889Z,100.00
2023-04-15T14:00:33.709Z,100.00
2023-04-15T14:02:59.801Z,100.00
2023-04-15T14:05:26.177Z,100.00
2023-04-15T14:07:52.293Z,100.00
2023-04-15T14:10:18.422Z,100.00
2023-04-15T14:12:44.582Z,100.00
2023-04-15T14:15:10.647Z,100.00
2023-04-15T14:17:36.541Z,100.00
2023-04-15T14:20:02.851Z,100.00
2023-04-15T14:22:28.746Z,100.00
2023-04-15T14:24:55.007Z,100.00
2023-04-15T14:27:21.174Z,100.00
2023-04-15T14:29:47.054Z,100.00
2023-04-15T14:32:13.252Z,100.00
2023-04-15T14:34:40.219Z,100.00
2023-04-15T14:37:06.293Z,100.00
2023-04-15T14:39:32.368Z,100.00
2023-04-15T14:41:58.628Z,100.00
2023-04-15T14:44:24.541Z,100.00
2023-04-15T14:46:51.031Z,100.00
2023-04-15T14:49:17.071Z,100.00
2023-04-15T14:51:42.992Z,100.00
2023-04-15T14:54:08.795Z,100.00
2023-04-15T14:56:35.107Z,100.00
2023-04-15T14:59:00.930Z,100.00
2023-04-15T15:01:27.375Z,100.00
2023-04-15T15:03:53.356Z,100.00
2023-04-15T15:06:21.707Z,100.00
2023-04-15T15:08:48.938Z,100.00
2023-04-15T15:11:16.369Z,100.00
2023-04-15T15:13:42.360Z,100.00
2023-04-15T15:16:08.504Z,100.00
2023-04-15T15:18:35.406Z,100.00
2023-04-15T15:21:01.518Z,100.00
2023-04-15T15:23:27.638Z,100.00
2023-04-15T15:25:53.767Z,100.00
2023-04-15T15:28:21.171Z,100.00
2023-04-15T15:30:47.336Z,100.00
2023-04-15T15:33:13.209Z,100.00
2023-04-15T15:35:39.210Z,100.00
2023-04-15T15:38:05.638Z,100.00
2023-04-15T15:40:31.614Z,100.00
2023-04-15T15:42:57.475Z,100.00
2023-04-15T15:45:23.343Z,100.00
2023-04-15T15:47:49.409Z,100.00
2023-04-15T15:50:15.275Z,100.00
2023-04-15T15:52:45.208Z,100.00
2023-04-15T15:55:11.124Z,100.00
2023-04-15T15:57:37.033Z,100.00
2023-04-15T16:00:11.928Z,100.00
2023-04-15T16:05:07.743Z,100.00
2023-04-15T16:07:33.573Z,100.00
2023-04-15T16:09:59.457Z,100.00
2023-04-15T16:12:26.147Z,100.00
2023-04-15T16:14:52.116Z,100.00
2023-04-15T16:17:18.039Z,100.00
2023-04-15T16:20:00.020Z,100.00
2023-04-15T16:22:27.793Z,100.00
2023-04-15T16:24:53.726Z,100.00
2023-04-15T16:27:19.586Z,100.00
2023-04-15T16:29:45.598Z,100.00
2023-04-15T16:32:11.461Z,100.00
2023-04-15T16:34:38.511Z,100.00
2023-04-15T16:37:04.776Z,100.00
2023-04-15T16:39:30.749Z,100.00
2023-04-15T16:41:57.023Z,100.00
2023-04-15T16:44:24.064Z,100.00
2023-04-15T16:46:50.293Z,100.00
2023-04-15T16:49:16.346Z,100.00
2023-04-15T16:51:42.304Z,100.00
2023-04-15T16:54:08.215Z,100.00
2023-04-15T16:56:34.065Z,100.00
2023-04-15T16:58:59.918Z,100.00
2023-04-15T17:01:25.932Z,100.00
2023-04-15T17:03:55.368Z,100.00
2023-04-15T17:06:22.138Z,100.00
2023-04-15T17:08:48.188Z,100.00
2023-04-15T17:11:14.762Z,100.00
2023-04-15T17:13:40.814Z,100.00
2023-04-15T17:16:07.397Z,100.00
2023-04-15T17:18:33.306Z,100.00
2023-04-15T17:20:59.255Z,100.00
2023-04-15T17:23:26.548Z,100.00
2023-04-15T17:25:52.913Z,100.00
2023-04-15T17:28:18.794Z,100.00
2023-04-15T17:30:44.825Z,100.00
2023-04-15T17:33:57.805Z,100.00
2023-04-15T17:35:57.365Z,100.00
2023-04-15T17:38:23.178Z,100.00
2023-04-15T17:40:49.050Z,100.00
2023-04-15T17:43:14.957Z,100.00
2023-04-15T17:45:41.085Z,100.00
2023-04-15T17:48:07.126Z,100.00
2023-04-15T17:50:33.496Z,100.00
2023-04-15T17:52:59.465Z,100.00
2023-04-15T17:55:25.475Z,100.00
2023-04-15T17:57:51.436Z,100.00
2023-04-15T18:00:19.250Z,100.00
2023-04-15T18:02:45.337Z,100.00
2023-04-15T18:05:11.637Z,100.00
2023-04-15T18:07:37.635Z,100.00
2023-04-15T18:10:04.110Z,100.00
2023-04-15T18:12:30.339Z,100.00
2023-04-15T18:14:56.225Z,100.00
2023-04-15T18:17:22.199Z,100.00
2023-04-15T18:19:48.290Z,100.00
2023-04-15T18:22:17.086Z,100.00
2023-04-15T18:24:43.236Z,100.00
2023-04-15T18:27:09.199Z,100.00
2023-04-15T18:29:35.795Z,100.00
2023-04-15T18:32:02.437Z,100.00
2023-04-15T18:34:29.158Z,100.00
2023-04-15T18:36:57.054Z,100.00
2023-04-15T18:39:27.018Z,100.00
2023-04-15T18:41:53.630Z,100.00
2023-04-15T18:44:19.724Z,100.00
2023-04-15T18:46:45.628Z,100.00
2023-04-15T18:49:11.965Z,100.00
2023-04-15T18:51:37.963Z,100.00
2023-04-15T18:54:03.936Z,100.00
2023-04-15T18:56:30.255Z,100.00
2023-04-15T18:59:08.920Z,100.00
2023-04-15T19:01:42.957Z,100.00
2023-04-15T19:04:09.645Z,100.00
2023-04-15T19:06:35.818Z,100.00
2023-04-15T19:09:01.956Z,100.00
2023-04-15T19:11:28.009Z,100.00
2023-04-15T19:13:54.006Z,100.00
2023-04-15T19:16:20.361Z,100.00
2023-04-15T19:18:46.879Z,100.00
2023-04-15T19:21:12.895Z,100.00
2023-04-15T19:23:39.052Z,100.00
2023-04-15T19:26:07.472Z,100.00
2023-04-15T19:28:33.593Z,100.00
2023-04-15T19:30:59.555Z,100.00
2023-04-15T19:33:30.354Z,100.00
2023-04-15T19:36:04.699Z,100.00
2023-04-15T19:38:32.023Z,100.00
2023-04-15T19:40:59.016Z,100.00
2023-04-15T19:43:25.191Z,100.00
2023-04-15T19:45:53.646Z,100.00
2023-04-15T19:48:20.143Z,100.00
2023-04-15T19:50:46.314Z,100.00
2023-04-15T19:53:12.321Z,100.00
2023-04-15T19:55:38.655Z,100.00
2023-04-15T19:58:05.994Z,100.00
2023-04-15T20:00:31.991Z,100.00
2023-04-15T20:02:57.979Z,100.00
2023-04-15T20:05:24.142Z,100.00
2023-04-15T20:07:53.261Z,100.00
2023-04-15T20:10:22.688Z,100.00
2023-04-15T20:12:52.752Z,100.00
2023-04-15T20:15:21.877Z,100.00
2023-04-15T20:17:47.804Z,100.00
2023-04-15T20:20:13.673Z,100.00
2023-04-15T20:22:40.418Z,100.00
2023-04-15T20:25:09.419Z,100.00
2023-04-15T20:27:35.380Z,100.00
2023-04-15T20:30:03.089Z,100.00
2023-04-15T20:32:31.152Z,100.00
2023-04-15T20:34:57.041Z,100.00
2023-04-15T20:37:22.865Z,100.00
2023-04-15T20:39:48.823Z,100.00
2023-04-15T20:42:14.718Z,100.00
2023-04-15T20:44:40.576Z,100.00
2023-04-15T20:47:06.757Z,100.00
2023-04-15T20:49:37.050Z,100.00
2023-04-15T20:52:04.901Z,100.00
2023-04-15T20:54:30.823Z,100.00
2023-04-15T20:56:57.511Z,100.00
2023-04-15T20:59:26.767Z,100.00
2023-04-15T21:01:53.024Z,100.00
2023-04-15T21:04:20.219Z,100.00
2023-04-15T21:06:46.915Z,100.00
2023-04-15T21:09:13.174Z,100.00
2023-04-15T21:11:57.344Z,100.00
2023-04-15T21:14:24.983Z,100.00
2023-04-15T21:16:50.921Z,100.00
2023-04-15T21:19:16.755Z,100.00
2023-04-15T21:21:42.618Z,100.00
2023-04-15T21:24:08.535Z,100.00
2023-04-15T21:26:35.310Z,100.00
2023-04-15T21:29:01.428Z,100.00
2023-04-15T21:31:27.306Z,100.00
2023-04-15T21:33:53.144Z,100.00
2023-04-15T21:36:19.054Z,100.00
2023-04-15T21:38:45.117Z,100.00
2023-04-15T21:41:13.939Z,100.00
2023-04-15T21:43:39.807Z,100.00
2023-04-15T21:46:23.229Z,100.00
2023-04-15T21:48:52.033Z,100.00
2023-04-15T21:51:17.986Z,100.00
2023-04-15T21:53:43.906Z,100.00
2023-04-15T21:56:09.820Z,100.00
2023-04-15T21:58:38.895Z,100.00
2023-04-15T22:01:04.964Z,100.00
2023-04-15T22:03:33.001Z,100.00
2023-04-15T22:05:59.961Z,100.00
2023-04-15T22:08:25.912Z,100.00
2023-04-15T22:10:51.694Z,100.00
2023-04-15T22:13:17.697Z,100.00
2023-04-15T22:15:43.515Z,100.00
2023-04-15T22:18:11.515Z,100.00
2023-04-15T22:20:40.279Z,100.00
2023-04-15T22:23:09.156Z,100.00
2023-04-15T22:25:36.492Z,100.00
2023-04-15T22:28:07.571Z,100.00
2023-04-15T22:30:40.802Z,100.00
2023-04-15T22:33:08.474Z,100.00
2023-04-15T22:35:36.387Z,100.00
2023-04-15T22:38:03.531Z,100.00
2023-04-15T22:40:29.367Z,100.00
2023-04-15T22:42:55.335Z,100.00
2023-04-15T22:45:21.287Z,100.00
2023-04-15T22:47:47.231Z,100.00
2023-04-15T22:50:13.077Z,100.00
2023-04-15T22:52:39.000Z,100.00
2023-04-15T22:55:05.810Z,100.00
2023-04-15T22:57:31.717Z,100.00
2023-04-15T22:59:57.642Z,100.00
2023-04-15T23:02:23.568Z,100.00
2023-04-15T23:04:49.641Z,100.00
2023-04-15T23:07:15.494Z,100.00
2023-04-15T23:09:41.353Z,100.00
2023-04-15T23:12:07.215Z,100.00
2023-04-15T23:14:33.107Z,100.00
2023-04-15T23:16:59.001Z,100.00
2023-04-15T23:19:24.944Z,100.00
2023-04-15T23:21:50.827Z,100.00
2023-04-15T23:24:17.069Z,100.00
2023-04-15T23:26:43.147Z,100.00
2023-04-15T23:29:09.966Z,100.00
2023-04-15T23:31:36.051Z,100.00
2023-04-15T23:34:02.496Z,100.00
2023-04-15T23:36:28.274Z,100.00
2023-04-15T23:38:54.156Z,100.00
2023-04-15T23:41:19.945Z,100.00
2023-04-15T23:43:45.741Z,100.00
2023-04-15T23:46:11.558Z,100.00
2023-04-15T23:48:37.860Z,100.00
2023-04-15T23:51:04.470Z,100.00
2023-04-15T23:53:31.081Z,100.00
2023-04-15T23:55:56.952Z,100.00
2023-04-15T23:58:23.188Z,100.00
